Terminal Aerodrome Forecast
Issued by NWS Wilmington, OH

Home | Current Version | Previous Version | Text Only | Print | Product List | Glossary On
Versions: 1 2 3 4 5 6 7 8 9 10 11 12 13 14 15 16 17 18 19 20 21 22 23 24 25 26 27 28 29 30
000
FTUS41 KILN 271700
TAFCVG
TAF
KCVG 271740Z 2718/2824 30012G18KT P6SM VCSH OVC025
      TEMPO 2719/2722 5SM -SHSN BR OVC015
     FM280000 29008KT P6SM BKN025
     FM280600 23004KT P6SM SCT025
     FM281400 19010KT P6SM SCT025 BKN100=

USA.gov is the U.S. government's official web portal to all federal, state and local government web resources and services.